KPUB

Pueblo Memorial Airport

Airport
ICAO code
KPUB
Summary
ICAO Region
NAM
ICAO Territory
Location

Pueblo, Colorado,

Coordinates
38° 17' 2" N , 104° 29' 43" W
KCC
Airport CFIT
Altimeter Temperature Error Correction
Airport LOS
Parallel Runway Operation
Airport RE
Hot and High Operations
Airport WX
Mountain Waves
Metar
KPUB 202153Z AUTO 26019G27KT 10SM CLR 21/M08 A3001 RMK AO2 PK WND 26027/2144 WSHFT 2124 SLP142 T02111083

Description

Pueblo Memorial Airport is a city owned, public use airport located 9 km east of the central business district of Pueblo, a city in Pueblo County, Colorado.

Climatology

Semi-arid Steppe climate (Köppen climate classification BSk) - Little precipitation, hot summers and cold winters, sometimes with large changes in temperature in a 24 hour period.

Runways

Designator Length Width Surface Rops
08R/26L 1241 23 ASP Yes/Yes
12/30 2520 46 ASP No/No
17/35 2532 46 ASP Yes/Yes
08L/26R 3199 46 ASP Yes/Yes

Airport map

Aerial View

SKYbrary Partners:

Safety knowledge contributed by: